createdAt,value
2022-08-25T00:00:50.269Z,50.42
2022-08-25T00:01:52.210Z,50.91
2022-08-25T00:02:55.589Z,49.98
2022-08-25T00:03:48.792Z,50.60
2022-08-25T00:04:53.601Z,50.37
2022-08-25T00:05:48.676Z,50.05
2022-08-25T00:06:49.189Z,50.57
2022-08-25T00:08:49.346Z,49.71
2022-08-25T00:09:48.614Z,50.07
2022-08-25T00:10:57.752Z,49.74
2022-08-25T00:11:49.995Z,49.75
2022-08-25T00:12:48.598Z,49.66
2022-08-25T00:13:54.264Z,48.94
2022-08-25T00:14:48.639Z,49.71
2022-08-25T00:15:49.570Z,49.46
2022-08-25T00:16:49.210Z,48.90
2022-08-25T00:17:49.234Z,49.12
2022-08-25T00:18:51.964Z,49.12
2022-08-25T00:19:48.704Z,48.69
2022-08-25T00:20:49.331Z,47.70
2022-08-25T00:21:48.822Z,47.92
2022-08-25T00:22:49.516Z,48.47
2022-08-25T00:25:48.832Z,47.45
2022-08-25T00:26:51.193Z,48.51
2022-08-25T00:27:48.750Z,48.66
2022-08-25T00:28:48.579Z,49.22
2022-08-25T00:29:48.581Z,49.58
2022-08-25T00:30:49.878Z,48.40
2022-08-25T00:32:52.540Z,48.73
2022-08-25T00:33:51.157Z,48.25
2022-08-25T00:34:48.595Z,47.69
2022-08-25T00:35:48.788Z,47.86
2022-08-25T00:36:51.942Z,48.10
2022-08-25T00:37:48.676Z,47.95
2022-08-25T00:38:50.135Z,48.45
2022-08-25T00:39:48.587Z,48.66
2022-08-25T00:40:58.623Z,48.55
2022-08-25T00:41:49.826Z,48.90
2022-08-25T00:42:48.737Z,49.07
2022-08-25T00:43:53.083Z,49.13
2022-08-25T00:44:48.634Z,49.02
2022-08-25T00:45:48.715Z,49.32
2022-08-25T00:46:51.349Z,49.12
2022-08-25T00:47:48.585Z,49.49
2022-08-25T00:48:52.508Z,49.86
2022-08-25T00:49:54.450Z,49.94
2022-08-25T00:50:48.581Z,50.19
2022-08-25T00:51:52.875Z,50.01
2022-08-25T00:52:52.720Z,49.95
2022-08-25T00:53:49.529Z,50.27
2022-08-25T00:54:50.594Z,50.18
2022-08-25T00:56:49.259Z,50.13
2022-08-25T00:57:56.587Z,50.15
2022-08-25T00:58:48.701Z,50.17
2022-08-25T00:59:48.848Z,49.75
2022-08-25T01:00:52.362Z,50.08
2022-08-25T01:01:49.840Z,50.42
2022-08-25T01:02:49.429Z,50.72
2022-08-25T01:03:48.589Z,51.25
2022-08-25T01:04:49.343Z,51.30
2022-08-25T01:06:50.052Z,51.42
2022-08-25T01:09:50.616Z,51.19
2022-08-25T01:10:50.554Z,50.62
2022-08-25T01:11:49.444Z,50.80
2022-08-25T01:13:53.781Z,51.13
2022-08-25T01:14:51.729Z,51.15
2022-08-25T01:15:53.737Z,51.31
2022-08-25T01:16:51.159Z,50.93
2022-08-25T01:17:51.423Z,50.77
2022-08-25T01:18:53.082Z,50.69
2022-08-25T01:19:49.057Z,50.85
2022-08-25T01:20:52.564Z,50.85
2022-08-25T01:22:55.124Z,50.36
2022-08-25T01:24:56.961Z,49.62
2022-08-25T01:25:57.758Z,49.88
2022-08-25T01:26:48.582Z,49.59
2022-08-25T01:27:48.579Z,49.27
2022-08-25T01:28:59.669Z,49.43
2022-08-25T01:30:49.062Z,49.05
2022-08-25T01:31:50.806Z,49.22
2022-08-25T01:32:49.389Z,49.03
2022-08-25T01:34:48.765Z,48.80
2022-08-25T01:35:48.977Z,48.85
2022-08-25T01:36:48.981Z,48.97
2022-08-25T01:37:48.674Z,48.32
2022-08-25T01:38:48.969Z,48.12
2022-08-25T01:39:48.737Z,48.61
2022-08-25T01:40:49.039Z,48.05
2022-08-25T01:42:00.364Z,47.84
2022-08-25T01:43:48.756Z,47.72
2022-08-25T01:44:49.457Z,47.31
2022-08-25T01:45:49.753Z,47.61
2022-08-25T01:46:48.687Z,47.57
2022-08-25T01:47:48.581Z,47.35
2022-08-25T01:48:48.538Z,47.06
2022-08-25T01:49:48.782Z,46.37
2022-08-25T01:50:48.567Z,46.46
2022-08-25T01:51:59.388Z,47.09
2022-08-25T01:53:48.643Z,47.01
2022-08-25T01:54:48.528Z,46.97
2022-08-25T01:55:57.958Z,47.39
2022-08-25T01:56:48.520Z,47.15
2022-08-25T01:57:48.825Z,47.55
2022-08-25T01:58:50.205Z,47.49
2022-08-25T01:59:48.520Z,46.83
2022-08-25T02:00:49.562Z,46.86
2022-08-25T02:01:48.653Z,46.67
2022-08-25T02:02:52.237Z,46.78
2022-08-25T02:03:50.494Z,46.69
2022-08-25T02:04:48.884Z,46.65
2022-08-25T02:05:49.306Z,46.26
2022-08-25T02:06:48.495Z,46.68
2022-08-25T02:07:48.815Z,46.20
2022-08-25T02:08:53.544Z,46.14
2022-08-25T02:09:48.566Z,46.25
2022-08-25T02:10:48.559Z,46.37
2022-08-25T02:14:48.935Z,46.38
2022-08-25T02:15:53.737Z,46.56
2022-08-25T02:16:51.237Z,46.11
2022-08-25T02:18:48.795Z,46.37
2022-08-25T02:19:48.533Z,45.97
2022-08-25T02:21:48.765Z,45.86
2022-08-25T02:22:53.103Z,45.31
2022-08-25T02:24:48.544Z,44.71
2022-08-25T02:25:48.576Z,44.92
2022-08-25T02:26:48.671Z,44.42
2022-08-25T02:27:48.569Z,44.37
2022-08-25T02:28:50.016Z,43.71
2022-08-25T02:29:48.599Z,44.06
2022-08-25T02:30:48.528Z,43.47
2022-08-25T02:32:48.544Z,44.06
2022-08-25T02:33:48.937Z,44.21
2022-08-25T02:34:48.591Z,44.33
2022-08-25T02:35:48.553Z,44.21
2022-08-25T02:36:48.520Z,44.68
2022-08-25T02:37:48.526Z,45.07
2022-08-25T02:38:48.807Z,45.42
2022-08-25T02:39:48.686Z,45.63
2022-08-25T02:40:51.764Z,45.82
2022-08-25T02:41:48.524Z,45.46
2022-08-25T02:42:49.235Z,45.88
2022-08-25T02:43:49.986Z,45.97
2022-08-25T02:44:48.464Z,45.93
2022-08-25T02:45:48.715Z,46.00
2022-08-25T02:46:49.047Z,46.08
2022-08-25T02:47:48.730Z,45.75
2022-08-25T02:48:49.377Z,45.08
2022-08-25T02:49:48.853Z,45.09
2022-08-25T02:50:52.699Z,45.65
2022-08-25T02:51:48.531Z,45.82
2022-08-25T02:52:50.730Z,46.46
2022-08-25T02:54:48.474Z,46.26
2022-08-25T02:55:48.653Z,46.35
2022-08-25T02:56:48.716Z,46.63
2022-08-25T02:57:48.858Z,46.98
2022-08-25T02:58:49.113Z,46.89
2022-08-25T02:59:48.677Z,46.68
2022-08-25T03:00:49.562Z,46.71
2022-08-25T03:01:48.523Z,46.41
2022-08-25T03:02:48.684Z,46.44
2022-08-25T03:03:50.053Z,46.72
2022-08-25T03:04:48.585Z,46.42
2022-08-25T03:05:49.083Z,46.23
2022-08-25T03:06:48.585Z,46.20
2022-08-25T03:07:48.573Z,46.39
2022-08-25T03:08:48.553Z,46.57
2022-08-25T03:09:48.690Z,46.15
2022-08-25T03:10:48.509Z,46.31
2022-08-25T03:11:48.559Z,46.28
2022-08-25T03:12:48.715Z,46.30
2022-08-25T03:13:51.342Z,46.20
2022-08-25T03:15:49.472Z,46.62
2022-08-25T03:16:48.578Z,46.89
2022-08-25T03:17:50.961Z,46.70
2022-08-25T03:18:48.944Z,46.63
2022-08-25T03:19:49.019Z,46.46
2022-08-25T03:20:48.520Z,46.45
2022-08-25T03:21:48.988Z,46.53
2022-08-25T03:22:49.018Z,46.38
2022-08-25T03:24:48.458Z,46.83
2022-08-25T03:25:57.890Z,47.03
2022-08-25T03:26:56.804Z,47.28
2022-08-25T03:27:49.607Z,47.08
2022-08-25T03:29:49.512Z,47.01
2022-08-25T03:30:48.682Z,47.04
2022-08-25T03:31:48.706Z,47.17
2022-08-25T03:32:48.769Z,47.06
2022-08-25T03:34:48.456Z,47.39
2022-08-25T03:35:48.532Z,47.40
2022-08-25T03:36:50.553Z,47.38
2022-08-25T03:38:48.427Z,47.40
2022-08-25T03:39:48.498Z,47.04
2022-08-25T03:40:49.036Z,47.28
2022-08-25T03:41:48.628Z,47.26
2022-08-25T03:42:48.496Z,47.13
2022-08-25T03:43:49.674Z,47.10
2022-08-25T03:45:49.204Z,46.94
2022-08-25T03:46:51.736Z,46.96
2022-08-25T03:48:49.163Z,48.00
2022-08-25T03:49:48.502Z,48.65
2022-08-25T03:50:52.215Z,48.80
2022-08-25T03:51:50.886Z,48.22
2022-08-25T03:52:53.960Z,48.67
2022-08-25T03:53:48.448Z,48.73
2022-08-25T03:54:48.982Z,48.67
2022-08-25T03:55:48.477Z,48.76
2022-08-25T03:56:48.523Z,48.40
2022-08-25T03:57:48.553Z,48.51
2022-08-25T03:58:48.498Z,48.37
2022-08-25T03:59:48.517Z,48.41
2022-08-25T04:00:48.603Z,48.69
2022-08-25T04:01:54.487Z,48.86
2022-08-25T04:02:49.109Z,48.84
2022-08-25T04:04:48.531Z,48.90
2022-08-25T04:05:48.498Z,48.93
2022-08-25T04:07:48.427Z,48.80
2022-08-25T04:08:49.051Z,48.65
2022-08-25T04:10:48.715Z,48.95
2022-08-25T04:11:49.290Z,48.98
2022-08-25T04:12:49.512Z,49.08
2022-08-25T04:14:50.082Z,49.49
2022-08-25T04:15:49.332Z,49.61
2022-08-25T04:16:48.580Z,49.57
2022-08-25T04:17:48.434Z,49.67
2022-08-25T04:18:50.096Z,49.68
2022-08-25T04:19:48.395Z,49.63
2022-08-25T04:20:48.453Z,49.54
2022-08-25T04:21:48.487Z,49.56
2022-08-25T04:22:48.502Z,49.61
2022-08-25T04:23:50.233Z,49.60
2022-08-25T04:24:48.449Z,49.69
2022-08-25T04:25:48.399Z,49.84
2022-08-25T04:27:48.538Z,49.85
2022-08-25T04:30:51.988Z,50.03
2022-08-25T04:33:49.615Z,50.22
2022-08-25T04:34:49.275Z,50.54
2022-08-25T04:36:52.616Z,50.67
2022-08-25T04:37:48.994Z,50.65
2022-08-25T04:38:50.188Z,50.83
2022-08-25T04:39:48.507Z,50.98
2022-08-25T04:40:57.449Z,50.83
2022-08-25T04:41:49.714Z,50.88
2022-08-25T04:42:48.493Z,51.06
2022-08-25T04:47:52.938Z,51.16
2022-08-25T04:49:48.470Z,50.98
2022-08-25T04:50:48.757Z,50.95
2022-08-25T04:51:48.446Z,51.02
2022-08-25T04:52:49.612Z,51.00
2022-08-25T04:53:48.456Z,51.08
2022-08-25T04:54:48.674Z,51.27
2022-08-25T04:56:49.671Z,51.14
2022-08-25T04:57:48.756Z,51.03
2022-08-25T04:58:48.472Z,50.96
2022-08-25T04:59:48.427Z,51.09
2022-08-25T05:00:49.672Z,51.17
2022-08-25T05:01:49.699Z,51.12
2022-08-25T05:02:48.442Z,51.05
2022-08-25T05:03:53.999Z,50.97
2022-08-25T05:04:48.434Z,50.94
2022-08-25T05:05:48.403Z,51.05
2022-08-25T05:07:48.423Z,50.80
2022-08-25T05:08:48.365Z,50.72
2022-08-25T05:09:48.391Z,50.76
2022-08-25T05:10:48.510Z,50.74
2022-08-25T05:11:48.422Z,50.74
2022-08-25T05:12:48.399Z,50.92
2022-08-25T05:13:51.424Z,51.11
2022-08-25T05:14:48.729Z,51.30
2022-08-25T05:15:55.886Z,51.46
2022-08-25T05:16:49.357Z,51.58
2022-08-25T05:17:51.581Z,51.80
2022-08-25T05:18:49.120Z,52.11
2022-08-25T05:19:48.468Z,52.41
2022-08-25T05:20:48.462Z,52.72
2022-08-25T05:21:48.442Z,52.96
2022-08-25T05:22:48.398Z,53.26
2022-08-25T05:23:49.148Z,53.51
2022-08-25T05:24:48.363Z,53.70
2022-08-25T05:25:49.230Z,53.92
2022-08-25T05:26:48.675Z,54.07
2022-08-25T05:27:48.353Z,54.34
2022-08-25T05:28:50.829Z,54.60
2022-08-25T05:29:48.569Z,54.82
2022-08-25T05:30:50.413Z,55.10
2022-08-25T05:31:50.831Z,55.33
2022-08-25T05:32:48.534Z,55.56
2022-08-25T05:33:49.014Z,55.78
2022-08-25T05:34:48.428Z,55.95
2022-08-25T05:35:48.388Z,56.09
2022-08-25T05:36:49.220Z,56.30
2022-08-25T05:37:48.701Z,56.47
2022-08-25T05:38:49.399Z,56.64
2022-08-25T05:39:48.680Z,56.82
2022-08-25T05:40:48.479Z,57.05
2022-08-25T05:41:48.513Z,57.21
2022-08-25T05:42:48.423Z,57.35
2022-08-25T05:43:50.899Z,57.58
2022-08-25T05:44:48.394Z,57.85
2022-08-25T05:45:48.473Z,58.04
2022-08-25T05:46:48.366Z,58.16
2022-08-25T05:47:49.025Z,58.28
2022-08-25T05:48:49.156Z,58.38
2022-08-25T05:49:49.318Z,58.49
2022-08-25T05:50:55.476Z,58.60
2022-08-25T05:51:48.478Z,58.69
2022-08-25T05:52:48.336Z,58.79
2022-08-25T05:53:50.412Z,58.93
2022-08-25T05:54:48.329Z,58.98
2022-08-25T05:55:48.958Z,59.05
2022-08-25T05:56:48.641Z,59.13
2022-08-25T05:57:48.935Z,59.25
2022-08-25T05:58:48.808Z,59.43
2022-08-25T05:59:48.372Z,59.62
2022-08-25T06:00:49.073Z,59.73
2022-08-25T06:01:57.779Z,59.83
2022-08-25T06:02:49.786Z,59.98
2022-08-25T06:03:48.833Z,60.18
2022-08-25T06:04:48.443Z,60.38
2022-08-25T06:05:48.637Z,60.57
2022-08-25T06:06:48.982Z,60.77
2022-08-25T06:07:50.583Z,60.93
2022-08-25T06:08:48.438Z,61.09
2022-08-25T06:09:50.099Z,61.24
2022-08-25T06:10:53.121Z,61.37
2022-08-25T06:11:54.062Z,61.49
2022-08-25T06:12:50.139Z,61.64
2022-08-25T06:13:48.442Z,61.81
2022-08-25T06:14:49.650Z,61.92
2022-08-25T06:15:49.222Z,62.04
2022-08-25T06:16:51.579Z,62.18
2022-08-25T06:17:49.543Z,62.31
2022-08-25T06:18:48.344Z,62.46
2022-08-25T06:19:48.393Z,62.65
2022-08-25T06:20:48.502Z,62.82
2022-08-25T06:21:48.380Z,62.93
2022-08-25T06:22:48.765Z,63.07
2022-08-25T06:23:49.382Z,63.23
2022-08-25T06:24:48.720Z,63.43
2022-08-25T06:25:53.008Z,63.65
2022-08-25T06:26:48.318Z,63.86
2022-08-25T06:27:48.328Z,64.03
2022-08-25T06:28:48.413Z,64.12
2022-08-25T06:29:48.361Z,64.12
2022-08-25T06:30:48.855Z,64.25
2022-08-25T06:31:50.174Z,64.53
2022-08-25T06:32:49.427Z,64.81
2022-08-25T06:33:48.562Z,65.01
2022-08-25T06:34:48.433Z,65.16
2022-08-25T06:35:48.298Z,65.28
2022-08-25T06:36:48.946Z,65.42
2022-08-25T06:37:48.583Z,65.57
2022-08-25T06:38:48.850Z,65.75
2022-08-25T06:39:48.350Z,65.93
2022-08-25T06:40:49.775Z,66.09
2022-08-25T06:41:52.852Z,66.17
2022-08-25T06:42:50.743Z,66.22
2022-08-25T06:43:51.806Z,66.26
2022-08-25T06:44:48.354Z,66.26
2022-08-25T06:45:48.689Z,66.31
2022-08-25T06:46:48.443Z,66.45
2022-08-25T06:47:48.384Z,66.63
2022-08-25T06:48:48.932Z,66.79
2022-08-25T06:49:48.354Z,66.95
2022-08-25T06:50:48.547Z,67.15
2022-08-25T06:51:49.054Z,67.27
2022-08-25T06:52:48.304Z,67.33
2022-08-25T06:53:50.351Z,67.38
2022-08-25T06:54:49.086Z,67.27
2022-08-25T06:55:57.992Z,67.31
2022-08-25T06:56:49.593Z,67.43
2022-08-25T06:57:48.708Z,67.48
2022-08-25T06:58:49.354Z,67.50
2022-08-25T06:59:48.485Z,67.54
2022-08-25T07:00:48.361Z,67.53
2022-08-25T07:01:49.592Z,67.58
2022-08-25T07:02:48.344Z,67.75
2022-08-25T07:03:48.660Z,67.90
2022-08-25T07:04:48.481Z,67.98
2022-08-25T07:05:53.790Z,68.05
2022-08-25T07:06:48.657Z,68.24
2022-08-25T07:07:48.335Z,68.43
2022-08-25T07:08:49.068Z,68.61
2022-08-25T07:09:48.399Z,68.69
2022-08-25T07:10:48.902Z,68.73
2022-08-25T07:11:48.867Z,68.80
2022-08-25T07:12:48.320Z,68.91
2022-08-25T07:13:48.741Z,69.01
2022-08-25T07:15:03.460Z,69.06
2022-08-25T07:15:53.799Z,69.06
2022-08-25T07:16:50.384Z,69.12
2022-08-25T07:17:49.034Z,69.26
2022-08-25T07:18:49.602Z,69.38
2022-08-25T07:19:48.267Z,69.48
2022-08-25T07:20:48.830Z,69.42
2022-08-25T07:21:52.875Z,69.40
2022-08-25T07:22:48.522Z,69.36
2022-08-25T07:23:48.358Z,69.49
2022-08-25T07:24:48.335Z,69.57
2022-08-25T07:25:48.690Z,69.61
2022-08-25T07:26:48.669Z,69.69
2022-08-25T07:27:48.408Z,69.74
2022-08-25T07:28:48.892Z,69.77
2022-08-25T07:29:50.297Z,69.80
2022-08-25T07:32:48.399Z,69.74
2022-08-25T07:33:57.697Z,69.79
2022-08-25T07:34:57.656Z,69.87
2022-08-25T07:35:48.525Z,69.91
2022-08-25T07:36:48.347Z,70.03
2022-08-25T07:37:52.444Z,70.19
2022-08-25T07:38:48.308Z,70.34
2022-08-25T07:39:48.360Z,70.42
2022-08-25T07:40:54.710Z,70.44
2022-08-25T07:41:48.309Z,70.47
2022-08-25T07:42:50.031Z,70.57
2022-08-25T07:43:48.672Z,70.64
2022-08-25T07:44:48.248Z,70.78
2022-08-25T07:45:49.450Z,70.89
2022-08-25T07:47:48.509Z,71.03
2022-08-25T07:49:48.987Z,71.11
2022-08-25T07:50:49.518Z,71.14
2022-08-25T07:52:03.608Z,71.13
2022-08-25T07:52:53.876Z,71.13
2022-08-25T07:53:48.304Z,71.20
2022-08-25T07:54:48.300Z,71.19
2022-08-25T07:55:48.542Z,71.11
2022-08-25T07:56:48.370Z,71.19
2022-08-25T07:57:50.924Z,71.30
2022-08-25T07:58:48.981Z,71.50
2022-08-25T07:59:49.784Z,71.59
2022-08-25T08:00:52.277Z,71.61
2022-08-25T08:01:48.332Z,71.59
2022-08-25T08:02:48.836Z,71.59
2022-08-25T08:03:51.158Z,71.52
2022-08-25T08:04:50.285Z,71.60
2022-08-25T08:05:48.786Z,71.64
2022-08-25T08:06:48.340Z,71.60
2022-08-25T08:07:48.319Z,71.60
2022-08-25T08:08:50.532Z,71.59
2022-08-25T08:09:56.216Z,71.59
2022-08-25T08:11:03.290Z,71.59
2022-08-25T08:11:54.482Z,71.62
2022-08-25T08:12:48.271Z,71.66
2022-08-25T08:13:50.776Z,71.72
2022-08-25T08:14:48.647Z,71.83
2022-08-25T08:15:49.877Z,71.85
2022-08-25T08:16:48.561Z,71.82
2022-08-25T08:17:48.364Z,71.79
2022-08-25T08:18:49.389Z,71.82
2022-08-25T08:19:48.311Z,71.86
2022-08-25T08:20:49.734Z,71.87
2022-08-25T08:22:48.390Z,71.85
2022-08-25T08:23:50.390Z,71.74
2022-08-25T08:24:54.965Z,71.76
2022-08-25T08:25:48.344Z,71.79
2022-08-25T08:26:58.286Z,71.82
2022-08-25T08:27:48.956Z,71.88
2022-08-25T08:28:52.162Z,71.89
2022-08-25T08:29:48.360Z,71.89
2022-08-25T08:30:53.144Z,71.90
2022-08-25T08:31:48.948Z,71.95
2022-08-25T08:33:08.545Z,71.97
2022-08-25T08:33:48.733Z,72.01
2022-08-25T08:34:51.323Z,72.01
2022-08-25T08:35:48.312Z,71.96
2022-08-25T08:36:48.338Z,71.99
2022-08-25T08:37:48.348Z,71.96
2022-08-25T08:38:49.591Z,72.13
2022-08-25T08:39:48.301Z,72.22
2022-08-25T08:41:15.471Z,72.32
2022-08-25T08:42:12.131Z,72.66
2022-08-25T08:43:04.391Z,72.96
2022-08-25T08:43:51.973Z,73.14
2022-08-25T08:45:03.402Z,73.23
2022-08-25T08:45:53.162Z,73.25
2022-08-25T08:47:02.792Z,73.26
2022-08-25T08:49:01.684Z,73.35
2022-08-25T08:49:51.265Z,73.37
2022-08-25T08:51:04.756Z,73.45
2022-08-25T08:51:54.358Z,73.44
2022-08-25T08:53:52.402Z,73.19
2022-08-25T08:54:57.094Z,73.15
2022-08-25T08:55:53.055Z,73.14
2022-08-25T08:56:51.209Z,73.18
2022-08-25T08:57:53.457Z,73.24
2022-08-25T08:58:54.238Z,73.27
2022-08-25T08:59:52.369Z,73.36
2022-08-25T09:01:56.805Z,73.48
2022-08-25T09:02:52.823Z,73.63
2022-08-25T09:03:55.191Z,73.85
2022-08-25T09:04:56.282Z,73.99
2022-08-25T09:05:51.859Z,74.03
2022-08-25T09:06:50.348Z,74.03
2022-08-25T09:07:55.096Z,74.11
2022-08-25T09:08:49.072Z,74.21
2022-08-25T09:09:48.708Z,74.23
2022-08-25T09:10:55.318Z,74.28
2022-08-25T09:11:58.963Z,74.24
2022-08-25T09:13:04.960Z,74.25
2022-08-25T09:14:06.181Z,74.20
2022-08-25T09:14:56.422Z,74.14
2022-08-25T09:16:20.537Z,74.02
2022-08-25T09:18:04.909Z,73.93
2022-08-25T09:18:57.593Z,73.85
2022-08-25T09:20:18.654Z,73.82
2022-08-25T09:21:02.140Z,73.75
2022-08-25T09:22:01.039Z,73.76
2022-08-25T09:23:01.389Z,73.83
2022-08-25T09:24:06.191Z,73.84
2022-08-25T09:24:59.317Z,73.93
2022-08-25T09:25:54.031Z,74.06
2022-08-25T09:27:00.845Z,74.03
2022-08-25T09:28:03.194Z,74.00
2022-08-25T09:28:52.458Z,74.13
2022-08-25T09:30:06.275Z,74.11
2022-08-25T09:30:58.647Z,74.04
2022-08-25T09:31:49.780Z,74.02
2022-08-25T09:32:52.634Z,73.93
2022-08-25T09:33:48.366Z,73.95
2022-08-25T09:34:50.374Z,73.90
2022-08-25T09:35:49.405Z,73.81
2022-08-25T09:36:50.995Z,73.81
2022-08-25T09:37:58.814Z,73.71
2022-08-25T09:38:48.328Z,73.66
2022-08-25T09:39:48.276Z,73.82
2022-08-25T09:40:52.375Z,73.86
2022-08-25T09:41:52.246Z,73.93
2022-08-25T09:42:51.413Z,74.18
2022-08-25T09:43:55.162Z,74.35
2022-08-25T09:44:49.471Z,74.43
2022-08-25T09:45:51.886Z,74.50
2022-08-25T09:47:03.441Z,74.57
2022-08-25T09:48:56.818Z,74.60
2022-08-25T09:51:48.565Z,74.21
2022-08-25T09:52:53.499Z,74.31
2022-08-25T09:53:55.194Z,74.35
2022-08-25T09:56:55.488Z,74.49
2022-08-25T09:58:48.804Z,74.54
2022-08-25T09:59:57.451Z,74.51
2022-08-25T10:01:06.297Z,74.49
2022-08-25T10:04:00.237Z,74.41
2022-08-25T10:04:48.414Z,74.55
2022-08-25T10:08:59.579Z,74.62
2022-08-25T10:09:55.571Z,74.55
2022-08-25T10:11:49.031Z,74.45
2022-08-25T10:13:52.356Z,74.46
2022-08-25T10:14:49.145Z,74.45
2022-08-25T10:15:58.573Z,74.46
2022-08-25T10:16:50.118Z,74.43
2022-08-25T10:17:48.590Z,74.33
2022-08-25T10:19:06.876Z,74.25
2022-08-25T10:19:48.206Z,74.26
2022-08-25T10:21:07.560Z,74.28
2022-08-25T10:22:05.790Z,74.26
2022-08-25T10:22:50.428Z,74.32
2022-08-25T10:23:51.779Z,74.37
2022-08-25T10:24:49.694Z,74.47
2022-08-25T10:28:01.589Z,74.81
2022-08-25T10:29:05.962Z,74.70
2022-08-25T10:30:04.821Z,74.64
2022-08-25T10:31:00.851Z,74.63
2022-08-25T10:32:00.578Z,74.49
2022-08-25T10:32:57.820Z,74.40
2022-08-25T10:34:05.069Z,74.37
2022-08-25T10:34:52.652Z,74.37
2022-08-25T10:36:06.708Z,74.39
2022-08-25T10:37:00.297Z,74.49
2022-08-25T10:38:00.765Z,74.52
2022-08-25T10:38:52.454Z,74.49
2022-08-25T10:40:01.536Z,74.50
2022-08-25T10:40:58.147Z,74.51
2022-08-25T10:42:02.892Z,74.58
2022-08-25T10:42:56.272Z,74.65
2022-08-25T10:44:00.453Z,74.66
2022-08-25T10:45:16.625Z,74.63
2022-08-25T10:45:54.709Z,74.60
2022-08-25T10:46:54.300Z,74.65
2022-08-25T10:47:56.313Z,74.61
2022-08-25T10:49:06.102Z,74.62
2022-08-25T10:49:52.443Z,74.58
2022-08-25T10:50:59.546Z,74.52
2022-08-25T10:51:57.915Z,74.59
2022-08-25T10:53:01.783Z,74.63
2022-08-25T10:53:53.521Z,74.64
2022-08-25T10:54:58.293Z,74.70
2022-08-25T10:55:56.083Z,74.67
2022-08-25T10:58:04.905Z,74.72
2022-08-25T10:58:56.775Z,74.71
2022-08-25T11:00:01.975Z,74.73
2022-08-25T11:00:59.660Z,74.77
2022-08-25T11:02:06.099Z,74.81
2022-08-25T11:03:06.283Z,74.89
2022-08-25T11:04:00.686Z,74.97
2022-08-25T11:04:59.684Z,75.07
2022-08-25T11:05:54.715Z,75.13
2022-08-25T11:06:54.640Z,75.17
2022-08-25T11:07:51.988Z,75.17
2022-08-25T11:08:54.160Z,75.02
2022-08-25T11:10:55.508Z,74.95
2022-08-25T11:13:54.605Z,75.15
2022-08-25T11:14:53.695Z,75.23
2022-08-25T11:16:56.607Z,75.38
2022-08-25T11:19:50.812Z,75.54
2022-08-25T11:21:52.476Z,75.55
2022-08-25T11:22:55.483Z,75.52
2022-08-25T11:24:03.384Z,75.50
2022-08-25T11:24:57.422Z,75.51
2022-08-25T11:25:53.256Z,75.49
2022-08-25T11:26:55.848Z,75.51
2022-08-25T11:28:04.485Z,75.52
2022-08-25T11:28:55.704Z,75.47
2022-08-25T11:29:59.765Z,75.50
2022-08-25T11:30:49.033Z,75.56
2022-08-25T11:31:53.387Z,75.56
2022-08-25T11:32:52.601Z,75.52
2022-08-25T11:33:51.223Z,75.55
2022-08-25T11:34:48.233Z,75.65
2022-08-25T11:35:59.754Z,75.74
2022-08-25T11:36:57.878Z,75.87
2022-08-25T11:40:07.276Z,75.49
2022-08-25T11:41:04.520Z,75.58
2022-08-25T11:41:56.758Z,75.80
2022-08-25T11:42:58.128Z,75.95
2022-08-25T11:44:05.068Z,76.01
2022-08-25T11:45:02.840Z,76.02
2022-08-25T11:46:01.748Z,75.96
2022-08-25T11:46:59.919Z,75.92
2022-08-25T11:47:57.870Z,75.89
2022-08-25T11:49:06.224Z,75.89
2022-08-25T11:49:57.017Z,75.89
2022-08-25T11:51:50.528Z,76.00
2022-08-25T11:52:55.536Z,76.07
2022-08-25T11:53:48.625Z,76.05
2022-08-25T11:54:48.689Z,75.95
2022-08-25T11:55:53.946Z,75.88
2022-08-25T11:57:04.389Z,75.82
2022-08-25T11:58:52.439Z,75.64
2022-08-25T12:00:02.542Z,75.52
2022-08-25T12:00:48.193Z,75.56
2022-08-25T12:01:57.111Z,75.60
2022-08-25T12:02:50.751Z,75.66
2022-08-25T12:04:06.697Z,75.77
2022-08-25T12:06:02.733Z,75.86
2022-08-25T12:07:06.077Z,75.84
2022-08-25T12:08:08.913Z,75.79
2022-08-25T12:08:59.955Z,75.72
2022-08-25T12:09:57.319Z,75.70
2022-08-25T12:11:00.720Z,75.77
2022-08-25T12:11:54.791Z,75.81
2022-08-25T12:12:58.947Z,75.80
2022-08-25T12:13:50.747Z,75.81
2022-08-25T12:14:48.541Z,75.81
2022-08-25T12:15:58.004Z,75.80
2022-08-25T12:16:56.874Z,75.88
2022-08-25T12:19:53.718Z,76.07
2022-08-25T12:20:57.722Z,76.11
2022-08-25T12:21:48.344Z,76.13
2022-08-25T12:25:51.250Z,76.04
2022-08-25T12:26:54.072Z,76.05
2022-08-25T12:28:05.102Z,76.10
2022-08-25T12:28:56.876Z,76.15
2022-08-25T12:29:55.195Z,76.19
2022-08-25T12:30:56.252Z,76.25
2022-08-25T12:32:07.081Z,76.32
2022-08-25T12:32:56.695Z,76.35
2022-08-25T12:34:03.950Z,76.33
2022-08-25T12:35:57.946Z,76.40
2022-08-25T12:36:58.548Z,76.44
2022-08-25T12:37:58.665Z,76.49
2022-08-25T12:38:52.076Z,76.51
2022-08-25T12:40:00.787Z,76.51
2022-08-25T12:41:06.733Z,76.53
2022-08-25T12:45:50.175Z,76.36
2022-08-25T12:46:48.322Z,76.25
2022-08-25T12:47:50.334Z,76.17
2022-08-25T12:48:56.894Z,76.17
2022-08-25T12:49:48.608Z,76.20
2022-08-25T12:51:59.462Z,76.29
2022-08-25T12:52:48.997Z,76.31
2022-08-25T12:53:55.122Z,76.32
2022-08-25T12:54:54.743Z,76.30
2022-08-25T12:55:57.694Z,76.27
2022-08-25T12:56:56.469Z,76.31
2022-08-25T13:01:09.273Z,76.35
2022-08-25T13:02:03.084Z,76.40
2022-08-25T13:03:05.247Z,76.43
2022-08-25T13:04:57.720Z,76.55
2022-08-25T13:06:05.960Z,76.64
2022-08-25T13:10:06.025Z,76.85
2022-08-25T13:10:54.374Z,76.84
2022-08-25T13:11:51.225Z,76.74
2022-08-25T13:12:53.324Z,76.71
2022-08-25T13:13:51.896Z,76.73
2022-08-25T13:14:57.664Z,76.77
2022-08-25T13:15:58.602Z,76.78
2022-08-25T13:16:58.301Z,76.75
2022-08-25T13:19:48.056Z,76.61
2022-08-25T13:20:50.417Z,76.61
2022-08-25T13:21:49.352Z,76.61
2022-08-25T13:22:56.724Z,76.62
2022-08-25T13:24:51.250Z,76.65
2022-08-25T13:26:52.355Z,76.74
2022-08-25T13:27:53.602Z,76.86
2022-08-25T13:30:58.046Z,77.17
2022-08-25T13:32:48.191Z,77.30
2022-08-25T13:33:58.319Z,77.36
2022-08-25T13:36:00.525Z,77.44
2022-08-25T13:36:59.029Z,77.49
2022-08-25T13:38:50.181Z,77.65
2022-08-25T13:39:56.355Z,77.69
2022-08-25T13:40:48.095Z,77.73
2022-08-25T13:41:54.532Z,77.77
2022-08-25T13:42:55.526Z,77.78
2022-08-25T13:43:48.222Z,77.80
2022-08-25T13:45:50.529Z,77.88
2022-08-25T13:46:48.952Z,77.84
2022-08-25T13:48:49.676Z,77.91
2022-08-25T13:49:49.083Z,77.95
2022-08-25T13:51:55.403Z,77.96
2022-08-25T13:53:55.022Z,77.99
2022-08-25T13:56:48.058Z,77.98
2022-08-25T13:58:48.017Z,78.02
2022-08-25T14:02:51.559Z,78.00
2022-08-25T14:04:51.503Z,78.07
2022-08-25T14:05:48.053Z,78.10
2022-08-25T14:06:48.028Z,78.09
2022-08-25T14:11:56.735Z,78.09
2022-08-25T14:15:01.113Z,78.14
2022-08-25T14:20:51.772Z,78.22
2022-08-25T14:21:49.706Z,78.13
2022-08-25T14:22:48.567Z,78.13
2022-08-25T14:24:48.231Z,78.13
2022-08-25T14:25:50.141Z,78.10
2022-08-25T14:26:54.415Z,78.05
2022-08-25T14:28:07.388Z,78.00
2022-08-25T14:28:49.727Z,77.97
2022-08-25T14:29:51.035Z,77.97
2022-08-25T14:30:52.385Z,77.99
2022-08-25T14:31:48.447Z,78.03
2022-08-25T14:32:48.030Z,78.09
2022-08-25T14:33:54.682Z,78.18
2022-08-25T14:34:48.041Z,78.27
2022-08-25T14:35:50.381Z,78.37
2022-08-25T14:36:48.714Z,78.36
2022-08-25T14:37:49.259Z,78.41
2022-08-25T14:38:48.012Z,78.51
2022-08-25T14:39:48.110Z,78.55
2022-08-25T14:40:48.691Z,78.56
2022-08-25T14:41:52.557Z,78.52
2022-08-25T14:42:48.290Z,78.48
2022-08-25T14:43:48.248Z,78.46
2022-08-25T14:44:47.920Z,78.47
2022-08-25T14:46:52.676Z,78.46
2022-08-25T14:47:49.892Z,78.46
2022-08-25T14:48:52.334Z,78.45
2022-08-25T14:49:50.173Z,78.46
2022-08-25T14:50:48.080Z,78.45
2022-08-25T14:53:48.449Z,78.41
2022-08-25T14:55:49.419Z,78.49
2022-08-25T14:56:49.436Z,78.53
2022-08-25T14:57:48.080Z,78.55
2022-08-25T15:03:51.022Z,78.58
2022-08-25T15:05:48.071Z,78.59
2022-08-25T15:07:57.265Z,78.63
2022-08-25T15:08:57.728Z,78.67
2022-08-25T15:10:47.904Z,78.70
2022-08-25T15:12:48.212Z,78.67
2022-08-25T15:16:51.124Z,78.74
2022-08-25T15:17:50.263Z,78.75
2022-08-25T15:19:47.940Z,78.76
2022-08-25T15:21:49.804Z,78.66
2022-08-25T15:22:48.381Z,78.62
2022-08-25T15:23:47.925Z,78.61
2022-08-25T15:24:47.982Z,78.60